Time;durP1;ratioP1;P1;durP2;ratioP2;P2;SDS_P1;SDS_P2;PMS_P1;PMS_P2;Temp;Humidity;BMP_temperature;BMP_pressure;BME280_temperature;BME280_humidity;BME280_pressure;Samples;Min_cycle;Max_cycle;Signal;HPM_P1;HPM_P2
2022/11/12 08:48:45;;;;;;;11.85;7.68;;;4.80;99.90;;;;;;1477419;26;20047;-90
2022/11/12 08:51:10;;;;;;;14.35;8.10;;;4.90;99.90;;;;;;4958566;28;20042;-89
2022/11/12 08:53:36;;;;;;;12.55;7.68;;;5.00;99.90;;;;;;4952113;28;20082;-89
2022/11/12 08:56:02;;;;;;;13.43;8.32;;;5.00;99.90;;;;;;4954641;28;20102;-93
2022/11/12 09:00:56;;;;;;;13.65;9.77;;;5.20;99.90;;;;;;4947582;28;20047;-94
2022/11/12 09:03:24;;;;;;;17.13;10.25;;;5.20;99.90;;;;;;4921362;28;20042;-95
2022/11/12 09:05:51;;;;;;;15.30;9.23;;;5.30;99.90;;;;;;4936996;29;20055;-95
2022/11/12 09:08:20;;;;;;;13.20;8.32;;;5.40;99.90;;;;;;4931450;29;20107;-93
2022/11/12 09:10:46;;;;;;;15.38;9.73;;;5.50;99.90;;;;;;4932680;29;20126;-92
2022/11/12 09:13:17;;;;;;;15.18;9.68;;;5.50;99.90;;;;;;4929039;29;20114;-93
2022/11/12 09:15:43;;;;;;;13.45;9.65;;;5.60;99.90;;;;;;4933741;29;20051;-94
2022/11/12 09:18:14;;;;;;;18.27;11.98;;;5.70;99.90;;;;;;4927937;29;20086;-93
2022/11/12 09:20:40;;;;;;;20.35;13.05;;;5.70;99.90;;;;;;4949474;29;20113;-93
2022/11/12 09:23:11;;;;;;;20.30;11.52;;;5.80;99.90;;;;;;4924495;29;20050;-96
2022/11/12 09:25:38;;;;;;;19.42;11.50;;;5.90;99.90;;;;;;4934817;29;20047;-93
2022/11/12 09:28:10;;;;;;;17.77;11.70;;;6.00;99.90;;;;;;4948465;28;20039;-92
2022/11/12 09:30:40;;;;;;;18.42;13.18;;;6.10;99.90;;;;;;4949496;28;20047;-93
2022/11/12 09:33:06;;;;;;;22.40;12.35;;;6.10;99.90;;;;;;4931910;29;20054;-91
2022/11/12 09:35:31;;;;;;;20.20;13.95;;;6.30;99.90;;;;;;4913234;29;20043;-89
2022/11/12 09:37:58;;;;;;;21.75;15.10;;;6.40;99.90;;;;;;4944192;29;20039;-88
2022/11/12 09:40:40;;;;;;;22.10;15.65;;;6.40;99.90;;;;;;4937399;28;20046;-90
2022/11/12 09:43:18;;;;;;;23.02;15.85;;;6.50;99.90;;;;;;4926241;29;20400;-90
2022/11/12 09:45:45;;;;;;;24.17;14.82;;;6.60;99.90;;;;;;4938469;29;20050;-90
2022/11/12 09:48:17;;;;;;;20.67;14.73;;;6.70;99.90;;;;;;4928706;28;20138;-88
2022/11/12 09:50:52;;;;;;;19.98;13.95;;;6.70;99.90;;;;;;4923661;29;20055;-88
2022/11/12 09:53:24;;;;;;;21.17;13.27;;;6.80;99.90;;;;;;4922535;29;20066;-90
2022/11/12 09:55:49;;;;;;;19.60;13.05;;;6.90;99.90;;;;;;4918863;29;20385;-90
2022/11/12 09:58:18;;;;;;;24.15;13.02;;;7.00;99.90;;;;;;4919346;29;20046;-89
2022/11/12 10:00:57;;;;;;;21.63;14.45;;;7.10;99.90;;;;;;4915495;29;20059;-91
2022/11/12 10:03:54;;;;;;;20.13;14.32;;;7.20;99.90;;;;;;4917860;29;20183;-90
2022/11/12 10:06:23;;;;;;;23.65;21.23;;;7.30;99.90;;;;;;4925345;28;20042;-90
2022/11/12 10:09:07;;;;;;;23.77;21.38;;;7.40;99.90;;;;;;4930908;29;20137;-91
2022/11/12 10:14:47;;;;;;;19.08;12.07;;;7.50;99.90;;;;;;4942861;29;20047;-87
2022/11/12 10:17:16;;;;;;;20.25;15.55;;;7.60;99.90;;;;;;4903973;29;20106;-88
2022/11/12 10:19:47;;;;;;;23.42;21.02;;;7.60;99.90;;;;;;4941393;29;20046;-89
2022/11/12 10:22:13;;;;;;;20.77;14.68;;;7.70;99.90;;;;;;4946635;29;20047;-90
2022/11/12 10:24:40;;;;;;;20.42;13.65;;;7.80;99.90;;;;;;4930598;29;20492;-94
2022/11/12 10:27:19;;;;;;;22.30;16.35;;;7.80;99.90;;;;;;4926562;29;20099;-93
2022/11/12 10:30:00;;;;;;;20.55;15.57;;;7.90;99.90;;;;;;4943930;29;20173;-91
2022/11/12 10:32:26;;;;;;;23.05;20.60;;;8.00;99.90;;;;;;4909122;29;20496;-93
2022/11/12 10:34:51;;;;;;;21.88;14.43;;;8.10;99.90;;;;;;4942678;29;20122;-93
2022/11/12 10:37:25;;;;;;;20.55;15.13;;;8.10;99.90;;;;;;4926188;29;20104;-92
2022/11/12 10:39:52;;;;;;;20.40;14.50;;;8.20;99.90;;;;;;4942738;28;20047;-91
2022/11/12 10:42:19;;;;;;;23.40;21.00;;;8.20;99.90;;;;;;4943613;28;20043;-91
2022/11/12 10:44:46;;;;;;;20.42;15.15;;;8.30;99.90;;;;;;4946675;29;20040;-92
2022/11/12 10:47:20;;;;;;;22.30;19.75;;;8.30;99.90;;;;;;4940980;29;20090;-94
2022/11/12 10:50:07;;;;;;;21.60;19.30;;;8.40;99.90;;;;;;4925626;29;20062;-91
2022/11/12 10:52:33;;;;;;;22.70;20.40;;;8.50;99.90;;;;;;4924454;28;20047;-92
2022/11/12 10:55:15;;;;;;;20.52;14.85;;;8.50;99.90;;;;;;4932834;29;20133;-93
2022/11/12 10:57:41;;;;;;;19.95;14.30;;;8.50;99.90;;;;;;4925414;29;20082;-91
2022/11/12 11:00:12;;;;;;;18.80;13.93;;;8.70;99.90;;;;;;4920339;29;20145;-96
2022/11/12 11:02:54;;;;;;;19.98;15.10;;;8.70;99.90;;;;;;4921415;29;20119;-90
2022/11/12 11:05:31;;;;;;;21.42;18.85;;;8.80;99.90;;;;;;4907043;28;20095;-92
2022/11/12 11:07:57;;;;;;;21.08;18.88;;;8.90;99.90;;;;;;4924670;29;20329;-91
2022/11/12 11:10:26;;;;;;;21.63;18.95;;;9.00;99.90;;;;;;4943046;28;20039;-94
2022/11/12 11:13:18;;;;;;;23.98;13.98;;;9.10;99.90;;;;;;4944155;28;20046;-90
2022/11/12 11:16:01;;;;;;;20.38;18.27;;;9.10;99.90;;;;;;4908960;29;20047;-92
2022/11/12 11:18:29;;;;;;;21.50;19.05;;;9.20;99.90;;;;;;4927745;29;20130;-93
2022/11/12 11:21:16;;;;;;;21.05;18.85;;;9.30;99.90;;;;;;4913039;29;20063;-94
2022/11/12 11:23:48;;;;;;;21.65;18.58;;;9.40;99.90;;;;;;4936502;28;20035;-91
2022/11/12 11:26:36;;;;;;;20.05;17.95;;;9.50;99.90;;;;;;4923829;29;20094;-91
2022/11/12 11:29:36;;;;;;;19.88;17.88;;;9.60;99.90;;;;;;4919285;29;20066;-92
2022/11/12 11:32:10;;;;;;;19.13;17.20;;;9.70;99.90;;;;;;4921468;29;20043;-91
2022/11/12 11:34:48;;;;;;;20.42;18.27;;;9.70;99.90;;;;;;4925653;29;20036;-92
2022/11/12 11:37:27;;;;;;;22.77;17.27;;;9.80;99.90;;;;;;4947366;29;20480;-91
2022/11/12 11:40:02;;;;;;;19.27;17.05;;;9.90;99.90;;;;;;4949884;28;20039;-95
2022/11/12 11:42:49;;;;;;;19.88;17.40;;;10.00;99.90;;;;;;4944620;29;20480;-93
2022/11/12 11:45:27;;;;;;;19.50;17.30;;;10.10;99.90;;;;;;4935994;29;20047;-93
2022/11/12 11:48:00;;;;;;;21.00;16.73;;;10.20;99.90;;;;;;4950990;29;20043;-93
2022/11/12 11:50:38;;;;;;;19.65;16.98;;;10.20;99.90;;;;;;4932503;29;20045;-94
2022/11/12 12:52:19;;;;;;;16.38;14.30;;;11.30;99.90;;;;;;4964137;28;20507;-93
2022/11/12 12:54:50;;;;;;;16.23;13.77;;;11.30;99.90;;;;;;4957692;28;20050;-92
2022/11/12 12:57:39;;;;;;;17.25;14.52;;;11.40;99.90;;;;;;4946070;28;20049;-94
2022/11/12 13:00:33;;;;;;;16.85;14.23;;;11.40;99.90;;;;;;4948329;28;20783;-95
2022/11/12 13:02:59;;;;;;;17.60;14.77;;;11.40;99.90;;;;;;4949921;28;20050;-95
2022/11/12 13:05:26;;;;;;;17.33;14.50;;;11.40;99.90;;;;;;4970539;28;20399;-95
2022/11/12 13:07:52;;;;;;;16.90;14.10;;;11.40;99.90;;;;;;4955458;28;20046;-94
2022/11/12 13:10:36;;;;;;;18.13;15.68;;;11.50;99.90;;;;;;4953871;28;20039;-95
2022/11/12 13:13:22;;;;;;;15.73;14.02;;;11.50;99.90;;;;;;4965501;28;20054;-94
2022/11/12 13:15:52;;;;;;;16.65;14.68;;;11.50;99.90;;;;;;4958487;28;20124;-96
2022/11/12 13:18:36;;;;;;;15.93;14.07;;;11.50;99.90;;;;;;4949351;28;20039;-95
2022/11/12 13:21:12;;;;;;;16.30;14.60;;;11.50;99.90;;;;;;4975768;28;20038;-92
2022/11/12 13:24:05;;;;;;;16.75;14.95;;;11.50;99.90;;;;;;4962360;28;20066;-93
2022/11/12 13:26:44;;;;;;;15.98;14.27;;;11.50;99.90;;;;;;4980980;28;20086;-93
2022/11/12 13:29:28;;;;;;;16.33;14.13;;;11.50;99.90;;;;;;4970522;28;20073;-95
2022/11/12 13:32:27;;;;;;;17.45;14.63;;;11.50;99.90;;;;;;4971881;28;20043;-94
2022/11/12 13:35:20;;;;;;;16.70;13.90;;;11.50;99.90;;;;;;4952820;29;20078;-96
2022/11/12 13:38:08;;;;;;;16.73;15.02;;;11.60;99.90;;;;;;4952790;28;20101;-93
2022/11/12 13:40:39;;;;;;;18.10;15.27;;;11.50;99.90;;;;;;4953655;28;20194;-93
2022/11/12 13:43:14;;;;;;;18.23;15.40;;;11.50;99.90;;;;;;4971345;28;20050;-93
2022/11/12 13:46:06;;;;;;;96.68;89.63;;;11.50;99.90;;;;;;4966038;28;20047;-94
2022/11/12 13:48:41;;;;;;;26.85;24.17;;;11.50;99.90;;;;;;4912073;28;20062;-94
2022/11/12 13:51:12;;;;;;;17.17;15.38;;;11.50;99.90;;;;;;4950391;28;20117;-92
2022/11/12 13:53:38;;;;;;;16.45;14.68;;;11.50;99.90;;;;;;4949876;28;20187;-92
2022/11/12 13:56:03;;;;;;;17.98;15.90;;;11.50;99.90;;;;;;4962277;28;20047;-92
2022/11/12 13:58:31;;;;;;;17.10;15.18;;;11.50;99.90;;;;;;4942811;28;20047;-94
2022/11/12 14:01:02;;;;;;;17.58;15.73;;;11.50;99.90;;;;;;4968967;28;20039;-94
2022/11/12 14:03:46;;;;;;;19.10;16.60;;;11.50;99.90;;;;;;4970154;28;20051;-95
2022/11/12 14:06:15;;;;;;;16.75;14.93;;;11.50;99.90;;;;;;4952648;28;20070;-93
2022/11/12 14:09:05;;;;;;;16.98;15.02;;;11.50;99.90;;;;;;4944466;28;20073;-93
2022/11/12 14:12:11;;;;;;;16.98;14.75;;;11.50;99.90;;;;;;4947431;28;20051;-95
2022/11/12 14:14:47;;;;;;;17.17;15.38;;;11.50;99.90;;;;;;4918944;28;20233;-94
2022/11/12 14:17:38;;;;;;;17.35;15.02;;;11.50;99.90;;;;;;4971001;28;20432;-94
2022/11/12 14:20:30;;;;;;;17.77;15.88;;;11.50;99.90;;;;;;4961281;28;20146;-93
2022/11/12 14:23:13;;;;;;;18.33;15.38;;;11.60;99.90;;;;;;4945624;28;20102;-94
2022/11/12 14:25:50;;;;;;;17.45;15.10;;;11.60;99.90;;;;;;4931028;28;20130;-94
2022/11/12 14:28:28;;;;;;;18.02;15.20;;;11.60;99.90;;;;;;4934153;28;20038;-94
2022/11/12 14:30:55;;;;;;;19.02;15.80;;;11.50;99.90;;;;;;4970556;28;20057;-95
2022/11/12 14:33:25;;;;;;;18.45;16.42;;;11.50;99.90;;;;;;4940682;28;20122;-93
2022/11/12 14:35:58;;;;;;;18.25;15.63;;;11.50;99.90;;;;;;4961434;28;20077;-93
2022/11/12 14:38:29;;;;;;;18.02;15.60;;;11.60;99.90;;;;;;4930338;28;20047;-94
2022/11/12 14:41:23;;;;;;;17.63;14.95;;;11.50;99.90;;;;;;4955096;28;20058;-94
2022/11/12 14:43:52;;;;;;;20.83;16.50;;;11.50;99.90;;;;;;4944780;28;20191;-94
2022/11/12 14:46:36;;;;;;;19.35;16.27;;;11.50;99.90;;;;;;4955212;28;20130;-95
2022/11/12 14:49:32;;;;;;;17.67;15.73;;;11.50;99.90;;;;;;4960233;28;20051;-95
2022/11/12 14:52:42;;;;;;;18.63;14.48;;;11.50;99.90;;;;;;4947289;28;20090;-94
2022/11/12 14:55:14;;;;;;;17.42;14.55;;;11.50;99.90;;;;;;4953819;28;20058;-93
2022/11/12 14:57:40;;;;;;;17.35;14.70;;;11.50;99.90;;;;;;4944554;28;20074;-95
2022/11/12 15:00:36;;;;;;;18.38;15.40;;;11.50;99.90;;;;;;4943038;28;20039;-95
2022/11/12 15:03:03;;;;;;;18.65;15.48;;;11.40;99.90;;;;;;4945874;29;20043;-93
2022/11/12 15:05:29;;;;;;;18.85;16.30;;;11.40;99.90;;;;;;4919779;28;20032;-93
2022/11/12 15:08:04;;;;;;;17.75;15.80;;;11.30;99.90;;;;;;4953097;28;20356;-93
2022/11/12 15:10:43;;;;;;;17.73;15.82;;;11.30;99.90;;;;;;4944351;29;20041;-94
2022/11/12 15:13:14;;;;;;;17.63;15.77;;;11.20;99.90;;;;;;4962991;28;20423;-92
2022/11/12 15:15:53;;;;;;;20.15;15.90;;;11.10;99.90;;;;;;4952086;29;20078;-93
2022/11/12 15:18:22;;;;;;;18.73;16.17;;;11.10;99.90;;;;;;4966676;28;20039;-93
2022/11/12 15:21:27;;;;;;;20.58;16.08;;;11.00;99.90;;;;;;4930015;28;20042;-93
2022/11/12 15:24:05;;;;;;;19.80;17.05;;;11.00;99.90;;;;;;4940345;28;20059;-95
2022/11/12 15:26:41;;;;;;;20.17;17.10;;;10.90;99.90;;;;;;4965193;28;20047;-96
2022/11/12 15:29:09;;;;;;;20.13;17.20;;;10.80;99.90;;;;;;4966971;28;20043;-91
2022/11/12 15:31:53;;;;;;;21.25;17.55;;;10.80;99.90;;;;;;4947402;28;20039;-90
2022/11/12 15:34:28;;;;;;;21.15;17.90;;;10.80;99.90;;;;;;4954120;28;20054;-92
2022/11/12 15:36:56;;;;;;;20.85;17.70;;;10.70;99.90;;;;;;4980066;23;20062;-91
2022/11/12 15:39:25;;;;;;;19.75;17.40;;;10.70;99.90;;;;;;4989093;28;20039;-93
2022/11/12 15:41:59;;;;;;;19.98;17.85;;;10.60;99.90;;;;;;4975063;28;20042;-92
2022/11/12 15:44:29;;;;;;;19.48;17.35;;;10.60;99.90;;;;;;4977116;28;20046;-93
2022/11/12 15:46:54;;;;;;;18.92;16.88;;;10.50;99.90;;;;;;4967599;28;20042;-93
2022/11/12 15:49:20;;;;;;;20.23;18.02;;;10.50;99.90;;;;;;4955412;28;20050;-93
2022/11/12 15:51:46;;;;;;;20.52;18.42;;;10.40;99.90;;;;;;4951741;28;20468;-93
2022/11/12 15:54:12;;;;;;;20.00;17.73;;;10.30;99.90;;;;;;4965157;28;20057;-96
2022/11/12 15:56:37;;;;;;;21.73;18.63;;;10.30;99.90;;;;;;4956047;28;20042;-95
2022/11/12 15:59:03;;;;;;;19.60;17.02;;;10.30;99.90;;;;;;4955666;28;20038;-94
2022/11/12 16:01:29;;;;;;;20.52;18.25;;;10.20;99.90;;;;;;4956267;28;20034;-93
2022/11/12 16:03:54;;;;;;;19.67;17.27;;;10.20;99.90;;;;;;4956022;28;20034;-94
2022/11/12 16:06:23;;;;;;;19.80;17.67;;;10.10;99.90;;;;;;4949113;28;20058;-93
2022/11/12 16:08:49;;;;;;;18.67;13.80;;;10.10;99.90;;;;;;4955594;28;20514;-93
2022/11/12 16:13:59;;;;;;;18.92;16.98;;;10.00;99.90;;;;;;4966441;28;20105;-93
2022/11/12 16:16:25;;;;;;;19.95;17.85;;;10.00;99.90;;;;;;4953801;28;20049;-94
2022/11/12 16:18:50;;;;;;;20.05;17.65;;;9.90;99.90;;;;;;4955503;28;20546;-95
2022/11/12 16:21:16;;;;;;;19.85;17.27;;;9.80;99.90;;;;;;4968176;28;20493;-93
2022/11/12 16:23:41;;;;;;;21.27;18.50;;;9.80;99.90;;;;;;4968548;28;20090;-94
2022/11/12 16:26:08;;;;;;;21.35;19.05;;;9.70;99.90;;;;;;4957656;28;20035;-94
2022/11/12 16:28:34;;;;;;;21.35;18.17;;;9.70;99.90;;;;;;4956206;28;20074;-93
2022/11/12 16:30:59;;;;;;;21.13;18.88;;;9.70;99.90;;;;;;4968091;28;20125;-95
2022/11/12 16:33:25;;;;;;;20.48;18.27;;;9.70;99.90;;;;;;4959234;28;20045;-96
2022/11/12 16:35:51;;;;;;;21.15;18.85;;;9.60;99.90;;;;;;4954434;28;20061;-93
2022/11/12 16:38:18;;;;;;;20.52;18.33;;;9.60;99.90;;;;;;4950654;28;20050;-93
2022/11/12 16:40:44;;;;;;;20.67;13.18;;;9.50;99.90;;;;;;4956268;28;20403;-94
2022/11/12 16:43:10;;;;;;;20.30;18.10;;;9.40;99.90;;;;;;4955691;28;20042;-86
2022/11/12 16:45:40;;;;;;;19.95;17.65;;;9.40;99.90;;;;;;4985521;28;20487;-86
2022/11/12 16:48:18;;;;;;;19.10;12.55;;;9.40;99.90;;;;;;4966646;28;20046;-90
2022/11/12 16:50:44;;;;;;;18.77;13.07;;;9.30;99.90;;;;;;4967124;28;20411;-92
2022/11/12 16:53:09;;;;;;;19.67;12.27;;;9.20;99.90;;;;;;4956966;28;20038;-92
2022/11/12 16:55:35;;;;;;;21.60;18.40;;;9.20;99.90;;;;;;4957139;28;20035;-93
2022/11/12 16:58:00;;;;;;;21.13;18.25;;;9.20;99.90;;;;;;4972305;28;20053;-91
2022/11/12 17:00:27;;;;;;;21.25;18.98;;;9.10;99.90;;;;;;4955221;28;20053;-92
2022/11/12 17:02:52;;;;;;;17.77;12.32;;;9.10;99.90;;;;;;4948900;28;20086;-94
2022/11/12 17:05:23;;;;;;;20.50;17.60;;;9.00;99.90;;;;;;4967987;28;20411;-94
2022/11/12 17:07:53;;;;;;;22.92;18.67;;;9.00;99.90;;;;;;4950440;28;20042;-93
2022/11/12 17:10:22;;;;;;;21.25;18.88;;;9.00;99.90;;;;;;4975725;28;20030;-93
2022/11/12 17:12:48;;;;;;;18.58;12.50;;;8.90;99.90;;;;;;4964113;28;20038;-93
2022/11/12 17:15:14;;;;;;;20.58;18.40;;;8.80;99.90;;;;;;4966280;28;20033;-92
2022/11/12 17:17:40;;;;;;;17.15;12.00;;;8.80;99.90;;;;;;4966463;28;20094;-92
2022/11/12 17:20:06;;;;;;;20.65;18.20;;;8.70;99.90;;;;;;4965832;28;20521;-91
2022/11/12 17:22:32;;;;;;;21.33;19.13;;;8.70;99.90;;;;;;4945640;28;20041;-93
2022/11/12 17:24:58;;;;;;;22.17;19.00;;;8.70;99.90;;;;;;4967173;28;20042;-94
2022/11/12 17:27:23;;;;;;;21.00;18.77;;;8.60;99.90;;;;;;4944184;28;20043;-94
2022/11/12 17:29:49;;;;;;;19.05;13.20;;;8.60;99.90;;;;;;4953418;28;20054;-93
2022/11/12 17:32:14;;;;;;;17.92;11.32;;;8.50;99.90;;;;;;4947430;28;20031;-94
2022/11/12 17:34:40;;;;;;;19.30;16.80;;;8.40;99.90;;;;;;4946928;28;20135;-95
2022/11/12 17:37:06;;;;;;;22.88;19.23;;;8.40;99.90;;;;;;4944919;28;20127;-91
2022/11/12 17:39:31;;;;;;;17.80;13.18;;;8.40;99.90;;;;;;4940340;28;20047;-90
2022/11/12 17:41:57;;;;;;;21.42;19.13;;;8.30;99.90;;;;;;4955434;28;20125;-94
2022/11/12 17:44:23;;;;;;;21.73;18.85;;;8.30;99.90;;;;;;4967665;28;20399;-93
2022/11/12 17:46:49;;;;;;;17.27;11.63;;;8.30;99.90;;;;;;4954968;28;20052;-95
2022/11/12 17:49:15;;;;;;;19.10;13.68;;;8.20;99.90;;;;;;4961704;28;20066;-93
2022/11/12 17:51:40;;;;;;;22.88;19.88;;;8.10;99.90;;;;;;4975477;28;20087;-94
2022/11/12 17:54:07;;;;;;;23.23;20.35;;;8.10;99.90;;;;;;4954316;28;20089;-93
2022/11/12 17:56:33;;;;;;;24.00;19.95;;;8.10;99.90;;;;;;4958313;28;20057;-94
2022/11/12 17:59:00;;;;;;;21.38;15.10;;;8.10;99.90;;;;;;4959516;28;20053;-93
2022/11/12 18:01:28;;;;;;;23.63;21.05;;;8.00;99.90;;;;;;4951353;28;20104;-95
2022/11/12 18:03:56;;;;;;;20.70;13.15;;;8.00;99.90;;;;;;4974895;28;20054;-94
2022/11/12 18:06:24;;;;;;;20.58;15.15;;;8.00;99.90;;;;;;4949185;28;20514;-94
2022/11/12 18:08:55;;;;;;;22.38;15.57;;;7.90;99.90;;;;;;4949109;28;20041;-93
2022/11/12 18:11:22;;;;;;;21.83;14.38;;;8.00;99.90;;;;;;4960042;28;20050;-93
2022/11/12 18:13:47;;;;;;;18.98;13.40;;;7.90;99.90;;;;;;4948367;28;20449;-93
2022/11/12 18:16:25;;;;;;;20.67;13.35;;;7.80;99.90;;;;;;4959205;28;20121;-93
2022/11/12 18:18:56;;;;;;;20.92;13.40;;;7.80;99.90;;;;;;4943806;28;20046;-94
2022/11/12 18:21:23;;;;;;;22.50;14.85;;;7.70;99.90;;;;;;4939316;28;20075;-94
2022/11/12 18:23:49;;;;;;;19.98;13.75;;;7.70;99.90;;;;;;4972040;28;20046;-93
2022/11/12 18:26:19;;;;;;;19.95;12.98;;;7.70;99.90;;;;;;4969552;28;20050;-93
2022/11/12 18:28:56;;;;;;;22.60;20.20;;;7.70;99.90;;;;;;4948188;28;20184;-93
2022/11/12 18:31:23;;;;;;;24.23;21.63;;;7.80;99.90;;;;;;4964250;28;20038;-93
2022/11/12 18:33:50;;;;;;;25.35;22.60;;;7.70;99.90;;;;;;4954735;28;20486;-91
2022/11/12 18:36:23;;;;;;;21.90;15.60;;;7.70;99.90;;;;;;4986166;28;20054;-91
2022/11/12 18:38:51;;;;;;;21.60;15.55;;;7.70;99.90;;;;;;4928780;29;20475;-91
2022/11/12 18:41:19;;;;;;;21.70;15.30;;;7.70;99.90;;;;;;4940214;28;20075;-92
2022/11/12 18:43:46;;;;;;;20.05;14.73;;;7.70;99.90;;;;;;4945067;29;20393;-92
2022/11/12 18:46:12;;;;;;;25.55;22.85;;;7.60;99.90;;;;;;4945353;29;20066;-93
2022/11/12 18:48:39;;;;;;;20.35;15.05;;;7.70;99.90;;;;;;4945896;29;20123;-93
2022/11/12 18:51:10;;;;;;;21.25;14.85;;;7.60;99.90;;;;;;4947692;29;20035;-93
2022/11/12 18:53:37;;;;;;;21.50;16.40;;;7.60;99.90;;;;;;4933194;29;20040;-94
2022/11/12 18:56:06;;;;;;;25.08;19.27;;;7.60;99.90;;;;;;4946642;28;20043;-92
2022/11/12 18:58:31;;;;;;;30.75;27.65;;;7.60;99.90;;;;;;4941768;28;20046;-92
2022/11/12 19:01:01;;;;;;;29.88;27.00;;;7.60;99.90;;;;;;4934358;29;20048;-91
2022/11/12 19:03:27;;;;;;;26.52;18.67;;;7.60;99.90;;;;;;4920719;29;20047;-93
2022/11/12 19:06:04;;;;;;;22.83;17.17;;;7.60;99.90;;;;;;4921766;29;20397;-93
2022/11/12 19:08:30;;;;;;;25.42;20.02;;;7.50;99.90;;;;;;4965630;28;20119;-93
2022/11/12 19:11:00;;;;;;;28.90;21.92;;;7.50;99.90;;;;;;4964695;28;20123;-93
2022/11/12 19:13:27;;;;;;;29.00;22.17;;;7.50;99.90;;;;;;4925199;29;20055;-93
2022/11/12 19:15:53;;;;;;;28.38;21.25;;;7.50;99.90;;;;;;4926241;29;20039;-94
2022/11/12 19:18:18;;;;;;;29.00;21.85;;;7.50;99.90;;;;;;4948737;29;20035;-93
2022/11/12 19:20:46;;;;;;;30.17;22.67;;;7.50;99.90;;;;;;4947289;28;20047;-93
2022/11/12 19:23:11;;;;;;;26.23;20.70;;;7.50;99.90;;;;;;4956046;28;20042;-93
2022/11/12 19:25:37;;;;;;;33.15;29.50;;;7.60;99.90;;;;;;4961557;28;20047;-95
